sensor_id;sensor_type;location;lat;lon;timestamp;temperature;humidity
56771;DHT22;42641;59.794;17.616;2022-11-24T00:00:51;2.50;99.90
56771;DHT22;42641;59.794;17.616;2022-11-24T00:03:17;2.60;99.90
56771;DHT22;42641;59.794;17.616;2022-11-24T00:05:44;2.50;99.90
56771;DHT22;42641;59.794;17.616;2022-11-24T00:08:11;2.50;99.90
56771;DHT22;42641;59.794;17.616;2022-11-24T00:10:37;2.50;99.90
56771;DHT22;42641;59.794;17.616;2022-11-24T00:13:04;2.50;99.90
56771;DHT22;42641;59.794;17.616;2022-11-24T00:15:30;2.50;99.90
56771;DHT22;42641;59.794;17.616;2022-11-24T00:17:56;2.50;99.90
56771;DHT22;42641;59.794;17.616;2022-11-24T00:20:23;2.50;99.90
56771;DHT22;42641;59.794;17.616;2022-11-24T00:22:49;2.50;99.90
56771;DHT22;42641;59.794;17.616;2022-11-24T00:25:15;2.50;99.90
56771;DHT22;42641;59.794;17.616;2022-11-24T00:27:42;2.50;99.90
56771;DHT22;42641;59.794;17.616;2022-11-24T00:30:08;2.50;99.90
56771;DHT22;42641;59.794;17.616;2022-11-24T00:32:35;2.50;99.90
56771;DHT22;42641;59.794;17.616;2022-11-24T00:35:01;2.50;99.90
56771;DHT22;42641;59.794;17.616;2022-11-24T00:37:27;2.50;99.90
56771;DHT22;42641;59.794;17.616;2022-11-24T00:39:54;2.50;99.90
56771;DHT22;42641;59.794;17.616;2022-11-24T00:42:20;2.50;99.90
56771;DHT22;42641;59.794;17.616;2022-11-24T00:44:46;2.60;99.90
56771;DHT22;42641;59.794;17.616;2022-11-24T00:47:12;2.50;99.90
56771;DHT22;42641;59.794;17.616;2022-11-24T00:49:39;2.60;99.90
56771;DHT22;42641;59.794;17.616;2022-11-24T00:52:05;2.60;99.90
56771;DHT22;42641;59.794;17.616;2022-11-24T00:54:31;2.50;99.90
56771;DHT22;42641;59.794;17.616;2022-11-24T00:56:58;2.50;99.90
56771;DHT22;42641;59.794;17.616;2022-11-24T00:59:24;2.50;99.90
56771;DHT22;42641;59.794;17.616;2022-11-24T01:01:50;2.50;99.90
56771;DHT22;42641;59.794;17.616;2022-11-24T01:04:17;2.50;99.90
56771;DHT22;42641;59.794;17.616;2022-11-24T01:06:43;2.50;99.90
56771;DHT22;42641;59.794;17.616;2022-11-24T01:09:09;2.60;99.90
56771;DHT22;42641;59.794;17.616;2022-11-24T01:11:37;2.60;99.90
56771;DHT22;42641;59.794;17.616;2022-11-24T01:14:23;2.60;99.90
56771;DHT22;42641;59.794;17.616;2022-11-24T01:16:50;2.60;99.90
56771;DHT22;42641;59.794;17.616;2022-11-24T01:19:16;2.60;99.90
56771;DHT22;42641;59.794;17.616;2022-11-24T01:21:43;2.60;99.90
56771;DHT22;42641;59.794;17.616;2022-11-24T01:24:10;2.60;99.90
56771;DHT22;42641;59.794;17.616;2022-11-24T01:26:36;2.50;99.90
56771;DHT22;42641;59.794;17.616;2022-11-24T01:29:03;2.60;99.90
56771;DHT22;42641;59.794;17.616;2022-11-24T01:31:29;2.60;99.90
56771;DHT22;42641;59.794;17.616;2022-11-24T01:33:58;2.60;99.90
56771;DHT22;42641;59.794;17.616;2022-11-24T01:36:25;2.60;99.90
56771;DHT22;42641;59.794;17.616;2022-11-24T01:38:51;2.60;99.90
56771;DHT22;42641;59.794;17.616;2022-11-24T01:41:20;2.60;99.90
56771;DHT22;42641;59.794;17.616;2022-11-24T01:43:48;2.60;99.90
56771;DHT22;42641;59.794;17.616;2022-11-24T01:51:23;2.60;99.90
56771;DHT22;42641;59.794;17.616;2022-11-24T01:54:29;2.60;99.90
56771;DHT22;42641;59.794;17.616;2022-11-24T01:57:04;2.70;99.90
56771;DHT22;42641;59.794;17.616;2022-11-24T01:59:33;2.70;99.90
56771;DHT22;42641;59.794;17.616;2022-11-24T02:01:59;2.70;99.90
56771;DHT22;42641;59.794;17.616;2022-11-24T02:04:28;2.70;99.90
56771;DHT22;42641;59.794;17.616;2022-11-24T02:06:58;2.60;99.90
56771;DHT22;42641;59.794;17.616;2022-11-24T02:12:00;2.60;99.90
56771;DHT22;42641;59.794;17.616;2022-11-24T02:14:28;2.60;99.90
56771;DHT22;42641;59.794;17.616;2022-11-24T02:16:54;2.60;99.90
56771;DHT22;42641;59.794;17.616;2022-11-24T02:22:00;2.60;99.90
56771;DHT22;42641;59.794;17.616;2022-11-24T02:24:51;2.60;99.90
56771;DHT22;42641;59.794;17.616;2022-11-24T02:27:19;2.60;99.90
56771;DHT22;42641;59.794;17.616;2022-11-24T02:29:46;2.60;99.90
56771;DHT22;42641;59.794;17.616;2022-11-24T02:32:14;2.60;99.90
56771;DHT22;42641;59.794;17.616;2022-11-24T02:34:41;2.60;99.90
56771;DHT22;42641;59.794;17.616;2022-11-24T02:37:07;2.60;99.90
56771;DHT22;42641;59.794;17.616;2022-11-24T02:39:34;2.60;99.90
56771;DHT22;42641;59.794;17.616;2022-11-24T02:42:07;2.60;99.90
56771;DHT22;42641;59.794;17.616;2022-11-24T02:44:41;2.60;99.90
56771;DHT22;42641;59.794;17.616;2022-11-24T02:47:10;2.60;99.90
56771;DHT22;42641;59.794;17.616;2022-11-24T02:49:38;2.60;99.90
56771;DHT22;42641;59.794;17.616;2022-11-24T02:52:05;2.60;99.90
56771;DHT22;42641;59.794;17.616;2022-11-24T02:54:31;2.60;99.90
56771;DHT22;42641;59.794;17.616;2022-11-24T02:56:58;2.50;99.90
56771;DHT22;42641;59.794;17.616;2022-11-24T02:59:24;2.50;99.90
56771;DHT22;42641;59.794;17.616;2022-11-24T03:01:51;2.50;99.90
56771;DHT22;42641;59.794;17.616;2022-11-24T03:04:17;2.50;99.90
56771;DHT22;42641;59.794;17.616;2022-11-24T03:06:43;2.50;99.90
56771;DHT22;42641;59.794;17.616;2022-11-24T03:09:10;2.50;99.90
56771;DHT22;42641;59.794;17.616;2022-11-24T03:11:37;2.50;99.90
56771;DHT22;42641;59.794;17.616;2022-11-24T03:14:04;2.60;99.90
56771;DHT22;42641;59.794;17.616;2022-11-24T03:16:31;2.60;99.90
56771;DHT22;42641;59.794;17.616;2022-11-24T03:18:58;2.60;99.90
56771;DHT22;42641;59.794;17.616;2022-11-24T03:21:24;2.60;99.90
56771;DHT22;42641;59.794;17.616;2022-11-24T03:23:51;2.60;99.90
56771;DHT22;42641;59.794;17.616;2022-11-24T03:26:20;2.50;99.90
56771;DHT22;42641;59.794;17.616;2022-11-24T03:28:47;2.50;99.90
56771;DHT22;42641;59.794;17.616;2022-11-24T03:31:14;2.50;99.90
56771;DHT22;42641;59.794;17.616;2022-11-24T03:33:40;2.50;99.90
56771;DHT22;42641;59.794;17.616;2022-11-24T03:36:07;2.50;99.90
56771;DHT22;42641;59.794;17.616;2022-11-24T03:38:33;2.50;99.90
56771;DHT22;42641;59.794;17.616;2022-11-24T03:41:00;2.50;99.90
56771;DHT22;42641;59.794;17.616;2022-11-24T03:43:26;2.50;99.90
56771;DHT22;42641;59.794;17.616;2022-11-24T03:45:53;2.50;99.90
56771;DHT22;42641;59.794;17.616;2022-11-24T03:48:19;2.50;99.90
56771;DHT22;42641;59.794;17.616;2022-11-24T03:50:57;2.50;99.90
56771;DHT22;42641;59.794;17.616;2022-11-24T03:53:25;2.50;99.90
56771;DHT22;42641;59.794;17.616;2022-11-24T03:55:52;2.50;99.90
56771;DHT22;42641;59.794;17.616;2022-11-24T03:58:19;2.50;99.90
56771;DHT22;42641;59.794;17.616;2022-11-24T04:00:49;2.50;99.90
56771;DHT22;42641;59.794;17.616;2022-11-24T04:03:16;2.50;99.90
56771;DHT22;42641;59.794;17.616;2022-11-24T04:05:42;2.50;99.90
56771;DHT22;42641;59.794;17.616;2022-11-24T04:08:09;2.50;99.90
56771;DHT22;42641;59.794;17.616;2022-11-24T04:10:36;2.50;99.90
56771;DHT22;42641;59.794;17.616;2022-11-24T04:13:09;2.50;99.90
56771;DHT22;42641;59.794;17.616;2022-11-24T04:15:38;2.50;99.90
56771;DHT22;42641;59.794;17.616;2022-11-24T04:18:05;2.50;99.90
56771;DHT22;42641;59.794;17.616;2022-11-24T04:20:32;2.50;99.90
56771;DHT22;42641;59.794;17.616;2022-11-24T04:22:59;2.50;99.90
56771;DHT22;42641;59.794;17.616;2022-11-24T04:25:25;2.50;99.90
56771;DHT22;42641;59.794;17.616;2022-11-24T04:27:53;2.50;99.90
56771;DHT22;42641;59.794;17.616;2022-11-24T04:30:21;2.50;99.90
56771;DHT22;42641;59.794;17.616;2022-11-24T04:32:48;2.50;99.90
56771;DHT22;42641;59.794;17.616;2022-11-24T04:35:14;2.50;99.90
56771;DHT22;42641;59.794;17.616;2022-11-24T04:37:41;2.60;99.90
56771;DHT22;42641;59.794;17.616;2022-11-24T04:40:08;2.60;99.90
56771;DHT22;42641;59.794;17.616;2022-11-24T04:42:35;2.60;99.90
56771;DHT22;42641;59.794;17.616;2022-11-24T04:45:01;2.70;99.90
56771;DHT22;42641;59.794;17.616;2022-11-24T04:47:28;2.70;99.90
56771;DHT22;42641;59.794;17.616;2022-11-24T04:49:54;2.60;99.90
56771;DHT22;42641;59.794;17.616;2022-11-24T04:52:22;2.70;99.90
56771;DHT22;42641;59.794;17.616;2022-11-24T04:54:49;2.60;99.90
56771;DHT22;42641;59.794;17.616;2022-11-24T04:57:24;2.70;99.90
56771;DHT22;42641;59.794;17.616;2022-11-24T04:59:51;2.70;99.90
56771;DHT22;42641;59.794;17.616;2022-11-24T05:02:18;2.70;99.90
56771;DHT22;42641;59.794;17.616;2022-11-24T05:04:45;2.70;99.90
56771;DHT22;42641;59.794;17.616;2022-11-24T05:07:16;2.70;99.90
56771;DHT22;42641;59.794;17.616;2022-11-24T05:09:42;2.60;99.90
56771;DHT22;42641;59.794;17.616;2022-11-24T05:12:27;2.60;99.90
56771;DHT22;42641;59.794;17.616;2022-11-24T05:15:00;2.60;99.90
56771;DHT22;42641;59.794;17.616;2022-11-24T05:17:28;2.60;99.90
56771;DHT22;42641;59.794;17.616;2022-11-24T05:19:55;2.60;99.90
56771;DHT22;42641;59.794;17.616;2022-11-24T05:22:22;2.60;99.90
56771;DHT22;42641;59.794;17.616;2022-11-24T05:24:49;2.60;99.90
56771;DHT22;42641;59.794;17.616;2022-11-24T05:27:15;2.70;99.90
56771;DHT22;42641;59.794;17.616;2022-11-24T05:29:42;2.60;99.90
56771;DHT22;42641;59.794;17.616;2022-11-24T05:32:08;2.60;99.90
56771;DHT22;42641;59.794;17.616;2022-11-24T05:34:34;2.60;99.90
56771;DHT22;42641;59.794;17.616;2022-11-24T05:37:01;2.60;99.90
56771;DHT22;42641;59.794;17.616;2022-11-24T05:39:31;2.60;99.90
56771;DHT22;42641;59.794;17.616;2022-11-24T05:41:58;2.50;99.90
56771;DHT22;42641;59.794;17.616;2022-11-24T05:44:24;2.50;99.90
56771;DHT22;42641;59.794;17.616;2022-11-24T05:46:50;2.50;99.90
56771;DHT22;42641;59.794;17.616;2022-11-24T05:49:17;2.50;99.90
56771;DHT22;42641;59.794;17.616;2022-11-24T05:51:43;2.50;99.90
56771;DHT22;42641;59.794;17.616;2022-11-24T05:54:10;2.50;99.90
56771;DHT22;42641;59.794;17.616;2022-11-24T05:56:36;2.50;99.90
56771;DHT22;42641;59.794;17.616;2022-11-24T05:59:02;2.50;99.90
56771;DHT22;42641;59.794;17.616;2022-11-24T06:01:29;2.60;99.90
56771;DHT22;42641;59.794;17.616;2022-11-24T06:03:55;2.60;99.90
56771;DHT22;42641;59.794;17.616;2022-11-24T06:06:21;2.60;99.90
56771;DHT22;42641;59.794;17.616;2022-11-24T06:08:48;2.50;99.90
56771;DHT22;42641;59.794;17.616;2022-11-24T06:11:14;2.60;99.90
56771;DHT22;42641;59.794;17.616;2022-11-24T06:13:45;2.60;99.90
56771;DHT22;42641;59.794;17.616;2022-11-24T06:16:11;2.60;99.90
56771;DHT22;42641;59.794;17.616;2022-11-24T06:18:38;2.60;99.90
56771;DHT22;42641;59.794;17.616;2022-11-24T06:21:05;2.70;99.90
56771;DHT22;42641;59.794;17.616;2022-11-24T06:23:32;2.70;99.90
56771;DHT22;42641;59.794;17.616;2022-11-24T06:25:59;2.70;99.90
56771;DHT22;42641;59.794;17.616;2022-11-24T06:28:26;2.70;99.90
56771;DHT22;42641;59.794;17.616;2022-11-24T06:30:53;2.70;99.90
56771;DHT22;42641;59.794;17.616;2022-11-24T06:33:19;2.70;99.90
56771;DHT22;42641;59.794;17.616;2022-11-24T06:35:46;2.70;99.90
56771;DHT22;42641;59.794;17.616;2022-11-24T06:38:12;2.70;99.90
56771;DHT22;42641;59.794;17.616;2022-11-24T06:40:39;2.70;99.90
56771;DHT22;42641;59.794;17.616;2022-11-24T06:43:06;2.70;99.90
56771;DHT22;42641;59.794;17.616;2022-11-24T06:45:32;2.70;99.90
56771;DHT22;42641;59.794;17.616;2022-11-24T06:47:59;2.70;99.90
56771;DHT22;42641;59.794;17.616;2022-11-24T06:50:25;2.60;99.90
56771;DHT22;42641;59.794;17.616;2022-11-24T06:52:53;2.60;99.90
56771;DHT22;42641;59.794;17.616;2022-11-24T06:55:20;2.60;99.90
56771;DHT22;42641;59.794;17.616;2022-11-24T06:57:46;2.70;99.90
56771;DHT22;42641;59.794;17.616;2022-11-24T07:00:13;2.70;99.90
56771;DHT22;42641;59.794;17.616;2022-11-24T07:02:39;2.70;99.90
56771;DHT22;42641;59.794;17.616;2022-11-24T07:05:06;2.70;99.90
56771;DHT22;42641;59.794;17.616;2022-11-24T07:07:32;2.70;99.90
56771;DHT22;42641;59.794;17.616;2022-11-24T07:09:59;2.70;99.90
56771;DHT22;42641;59.794;17.616;2022-11-24T07:12:25;2.70;99.90
56771;DHT22;42641;59.794;17.616;2022-11-24T07:14:51;2.70;99.90
56771;DHT22;42641;59.794;17.616;2022-11-24T07:17:18;2.70;99.90
56771;DHT22;42641;59.794;17.616;2022-11-24T07:19:44;2.70;99.90
56771;DHT22;42641;59.794;17.616;2022-11-24T07:22:10;2.80;99.90
56771;DHT22;42641;59.794;17.616;2022-11-24T07:24:37;2.80;99.90
56771;DHT22;42641;59.794;17.616;2022-11-24T07:27:03;2.80;99.90
56771;DHT22;42641;59.794;17.616;2022-11-24T07:29:30;2.90;99.90
56771;DHT22;42641;59.794;17.616;2022-11-24T07:31:56;2.80;99.90
56771;DHT22;42641;59.794;17.616;2022-11-24T07:34:23;2.90;99.90
56771;DHT22;42641;59.794;17.616;2022-11-24T07:36:49;2.90;99.90
56771;DHT22;42641;59.794;17.616;2022-11-24T07:39:16;2.90;99.90
56771;DHT22;42641;59.794;17.616;2022-11-24T07:41:42;3.00;99.90
56771;DHT22;42641;59.794;17.616;2022-11-24T07:44:09;3.10;99.90
56771;DHT22;42641;59.794;17.616;2022-11-24T07:46:35;3.10;99.90
56771;DHT22;42641;59.794;17.616;2022-11-24T07:49:01;3.10;99.90
56771;DHT22;42641;59.794;17.616;2022-11-24T07:51:28;3.20;99.90
56771;DHT22;42641;59.794;17.616;2022-11-24T07:53:54;3.20;99.90
56771;DHT22;42641;59.794;17.616;2022-11-24T07:56:20;3.30;99.90
56771;DHT22;42641;59.794;17.616;2022-11-24T07:58:47;3.30;99.90
56771;DHT22;42641;59.794;17.616;2022-11-24T08:01:15;3.30;99.90
56771;DHT22;42641;59.794;17.616;2022-11-24T08:03:42;3.30;99.90
56771;DHT22;42641;59.794;17.616;2022-11-24T08:06:09;3.30;99.90
56771;DHT22;42641;59.794;17.616;2022-11-24T08:08:35;3.30;99.90
56771;DHT22;42641;59.794;17.616;2022-11-24T08:11:07;3.30;99.90
56771;DHT22;42641;59.794;17.616;2022-11-24T08:13:34;3.30;99.90
56771;DHT22;42641;59.794;17.616;2022-11-24T08:16:12;3.30;99.90
56771;DHT22;42641;59.794;17.616;2022-11-24T08:18:40;3.30;99.90
56771;DHT22;42641;59.794;17.616;2022-11-24T08:21:09;3.30;99.90
56771;DHT22;42641;59.794;17.616;2022-11-24T08:23:37;3.20;99.90
56771;DHT22;42641;59.794;17.616;2022-11-24T08:26:05;3.20;99.90
56771;DHT22;42641;59.794;17.616;2022-11-24T08:28:34;3.10;99.90
56771;DHT22;42641;59.794;17.616;2022-11-24T08:31:07;3.20;99.90
56771;DHT22;42641;59.794;17.616;2022-11-24T08:33:34;3.20;99.90
56771;DHT22;42641;59.794;17.616;2022-11-24T08:36:06;3.30;99.90
56771;DHT22;42641;59.794;17.616;2022-11-24T08:38:33;3.30;99.90
56771;DHT22;42641;59.794;17.616;2022-11-24T08:41:08;3.30;99.90
56771;DHT22;42641;59.794;17.616;2022-11-24T08:43:36;3.30;99.90
56771;DHT22;42641;59.794;17.616;2022-11-24T08:46:11;3.30;99.90
56771;DHT22;42641;59.794;17.616;2022-11-24T08:48:38;3.30;99.90
56771;DHT22;42641;59.794;17.616;2022-11-24T08:51:12;3.30;99.90
56771;DHT22;42641;59.794;17.616;2022-11-24T08:53:39;3.30;99.90
56771;DHT22;42641;59.794;17.616;2022-11-24T08:56:07;3.30;99.90
56771;DHT22;42641;59.794;17.616;2022-11-24T08:58:35;3.40;99.90
56771;DHT22;42641;59.794;17.616;2022-11-24T09:01:10;3.50;99.90
56771;DHT22;42641;59.794;17.616;2022-11-24T09:03:39;3.50;99.90
56771;DHT22;42641;59.794;17.616;2022-11-24T09:06:07;3.40;99.90
56771;DHT22;42641;59.794;17.616;2022-11-24T09:08:35;3.40;99.90
56771;DHT22;42641;59.794;17.616;2022-11-24T09:11:07;3.50;99.90
56771;DHT22;42641;59.794;17.616;2022-11-24T09:13:34;3.50;99.90
56771;DHT22;42641;59.794;17.616;2022-11-24T09:16:06;3.50;99.90
56771;DHT22;42641;59.794;17.616;2022-11-24T09:18:33;3.40;99.90
56771;DHT22;42641;59.794;17.616;2022-11-24T09:21:16;3.50;99.90
56771;DHT22;42641;59.794;17.616;2022-11-24T09:23:44;3.50;99.90
56771;DHT22;42641;59.794;17.616;2022-11-24T09:26:15;3.50;99.90
56771;DHT22;42641;59.794;17.616;2022-11-24T09:28:42;3.50;99.90
56771;DHT22;42641;59.794;17.616;2022-11-24T09:31:11;3.50;99.90
56771;DHT22;42641;59.794;17.616;2022-11-24T09:33:38;3.50;99.90
56771;DHT22;42641;59.794;17.616;2022-11-24T09:36:05;3.50;99.90
56771;DHT22;42641;59.794;17.616;2022-11-24T09:38:32;3.50;99.90
56771;DHT22;42641;59.794;17.616;2022-11-24T09:41:27;3.50;99.90
56771;DHT22;42641;59.794;17.616;2022-11-24T09:55:50;3.50;99.90
56771;DHT22;42641;59.794;17.616;2022-11-24T09:58:39;3.60;99.90
56771;DHT22;42641;59.794;17.616;2022-11-24T10:01:39;3.70;99.90
56771;DHT22;42641;59.794;17.616;2022-11-24T10:03:57;3.80;99.90
56771;DHT22;42641;59.794;17.616;2022-11-24T10:22:43;4.00;99.90
56771;DHT22;42641;59.794;17.616;2022-11-24T10:28:12;4.00;99.90
56771;DHT22;42641;59.794;17.616;2022-11-24T10:30:39;4.00;99.90
56771;DHT22;42641;59.794;17.616;2022-11-24T10:33:18;4.00;99.90
56771;DHT22;42641;59.794;17.616;2022-11-24T10:35:59;4.00;99.90
56771;DHT22;42641;59.794;17.616;2022-11-24T10:39:00;4.00;99.90
56771;DHT22;42641;59.794;17.616;2022-11-24T10:41:49;4.00;99.90
56771;DHT22;42641;59.794;17.616;2022-11-24T10:44:17;3.90;99.90
56771;DHT22;42641;59.794;17.616;2022-11-24T10:46:43;4.00;99.90
56771;DHT22;42641;59.794;17.616;2022-11-24T10:49:26;4.00;99.90
56771;DHT22;42641;59.794;17.616;2022-11-24T10:52:03;4.10;99.90
56771;DHT22;42641;59.794;17.616;2022-11-24T10:54:31;4.10;99.90
56771;DHT22;42641;59.794;17.616;2022-11-24T10:56:58;4.10;99.90
56771;DHT22;42641;59.794;17.616;2022-11-24T10:59:34;4.10;99.90
56771;DHT22;42641;59.794;17.616;2022-11-24T11:02:07;4.10;99.90
56771;DHT22;42641;59.794;17.616;2022-11-24T11:04:48;4.20;99.90
56771;DHT22;42641;59.794;17.616;2022-11-24T11:07:17;4.20;99.90
56771;DHT22;42641;59.794;17.616;2022-11-24T11:09:44;4.20;99.90
56771;DHT22;42641;59.794;17.616;2022-11-24T11:12:31;4.20;99.90
56771;DHT22;42641;59.794;17.616;2022-11-24T11:15:24;4.10;99.90
56771;DHT22;42641;59.794;17.616;2022-11-24T11:17:55;4.10;99.90
56771;DHT22;42641;59.794;17.616;2022-11-24T11:20:33;4.10;99.90
56771;DHT22;42641;59.794;17.616;2022-11-24T11:23:11;4.10;99.90
56771;DHT22;42641;59.794;17.616;2022-11-24T11:25:39;4.20;99.90
56771;DHT22;42641;59.794;17.616;2022-11-24T11:28:27;4.10;99.90
56771;DHT22;42641;59.794;17.616;2022-11-24T11:31:04;4.10;99.90
56771;DHT22;42641;59.794;17.616;2022-11-24T11:33:32;4.10;99.90
56771;DHT22;42641;59.794;17.616;2022-11-24T11:36:02;4.10;99.90
56771;DHT22;42641;59.794;17.616;2022-11-24T11:38:35;4.10;99.90
56771;DHT22;42641;59.794;17.616;2022-11-24T11:41:04;4.10;99.90
56771;DHT22;42641;59.794;17.616;2022-11-24T11:43:38;4.10;99.90
56771;DHT22;42641;59.794;17.616;2022-11-24T11:46:10;4.10;99.90
56771;DHT22;42641;59.794;17.616;2022-11-24T11:48:37;4.10;99.90
56771;DHT22;42641;59.794;17.616;2022-11-24T11:57:15;4.10;99.90
56771;DHT22;42641;59.794;17.616;2022-11-24T12:02:40;4.10;99.90
56771;DHT22;42641;59.794;17.616;2022-11-24T12:05:23;4.10;99.90
56771;DHT22;42641;59.794;17.616;2022-11-24T12:11:20;4.10;99.90
56771;DHT22;42641;59.794;17.616;2022-11-24T12:13:57;4.10;99.90
56771;DHT22;42641;59.794;17.616;2022-11-24T12:16:46;4.10;99.90
56771;DHT22;42641;59.794;17.616;2022-11-24T12:22:04;4.10;99.90
56771;DHT22;42641;59.794;17.616;2022-11-24T12:30:11;4.20;99.90
56771;DHT22;42641;59.794;17.616;2022-11-24T12:35:39;4.20;99.90
56771;DHT22;42641;59.794;17.616;2022-11-24T12:38:23;4.10;99.90
56771;DHT22;42641;59.794;17.616;2022-11-24T12:41:06;4.10;99.90
56771;DHT22;42641;59.794;17.616;2022-11-24T12:43:36;4.00;99.90
56771;DHT22;42641;59.794;17.616;2022-11-24T12:46:47;4.00;99.90
56771;DHT22;42641;59.794;17.616;2022-11-24T12:51:58;4.10;99.90
56771;DHT22;42641;59.794;17.616;2022-11-24T12:54:26;4.10;99.90
56771;DHT22;42641;59.794;17.616;2022-11-24T12:57:05;4.10;99.90
56771;DHT22;42641;59.794;17.616;2022-11-24T13:05:24;4.20;99.90
56771;DHT22;42641;59.794;17.616;2022-11-24T13:08:01;4.20;99.90
56771;DHT22;42641;59.794;17.616;2022-11-24T13:13:04;4.10;99.90
56771;DHT22;42641;59.794;17.616;2022-11-24T13:16:01;4.10;99.90
56771;DHT22;42641;59.794;17.616;2022-11-24T13:24:02;4.00;99.90
56771;DHT22;42641;59.794;17.616;2022-11-24T13:32:24;3.90;99.90
56771;DHT22;42641;59.794;17.616;2022-11-24T13:39:57;3.90;99.90
56771;DHT22;42641;59.794;17.616;2022-11-24T13:42:28;3.90;99.90
56771;DHT22;42641;59.794;17.616;2022-11-24T13:44:57;3.90;99.90
56771;DHT22;42641;59.794;17.616;2022-11-24T13:47:36;3.90;99.90
56771;DHT22;42641;59.794;17.616;2022-11-24T13:52:49;3.90;99.90
56771;DHT22;42641;59.794;17.616;2022-11-24T13:55:18;3.90;99.90
56771;DHT22;42641;59.794;17.616;2022-11-24T13:57:50;3.90;99.90
56771;DHT22;42641;59.794;17.616;2022-11-24T14:00:35;3.90;99.90
56771;DHT22;42641;59.794;17.616;2022-11-24T14:03:21;4.00;99.90
56771;DHT22;42641;59.794;17.616;2022-11-24T14:05:51;3.90;99.90
56771;DHT22;42641;59.794;17.616;2022-11-24T14:08:31;3.90;99.90
56771;DHT22;42641;59.794;17.616;2022-11-24T14:10:59;3.90;99.90
56771;DHT22;42641;59.794;17.616;2022-11-24T14:13:30;3.80;99.90
56771;DHT22;42641;59.794;17.616;2022-11-24T14:16:23;3.80;99.90
56771;DHT22;42641;59.794;17.616;2022-11-24T14:18:51;3.80;99.90
56771;DHT22;42641;59.794;17.616;2022-11-24T14:21:33;3.80;99.90
56771;DHT22;42641;59.794;17.616;2022-11-24T14:24:23;3.70;99.90
56771;DHT22;42641;59.794;17.616;2022-11-24T14:26:50;3.60;99.90
56771;DHT22;42641;59.794;17.616;2022-11-24T14:29:21;3.60;99.90
56771;DHT22;42641;59.794;17.616;2022-11-24T14:31:56;3.70;99.90
56771;DHT22;42641;59.794;17.616;2022-11-24T14:34:24;3.60;99.90
56771;DHT22;42641;59.794;17.616;2022-11-24T14:36:51;3.60;99.90
56771;DHT22;42641;59.794;17.616;2022-11-24T14:39:25;3.70;99.90
56771;DHT22;42641;59.794;17.616;2022-11-24T14:42:01;3.70;99.90
56771;DHT22;42641;59.794;17.616;2022-11-24T14:44:32;3.70;99.90
56771;DHT22;42641;59.794;17.616;2022-11-24T14:47:05;3.60;99.90
56771;DHT22;42641;59.794;17.616;2022-11-24T14:49:33;3.60;99.90
56771;DHT22;42641;59.794;17.616;2022-11-24T14:52:07;3.70;99.90
56771;DHT22;42641;59.794;17.616;2022-11-24T14:54:36;3.70;99.90
56771;DHT22;42641;59.794;17.616;2022-11-24T14:57:39;3.60;99.90
56771;DHT22;42641;59.794;17.616;2022-11-24T15:00:25;3.70;99.90
56771;DHT22;42641;59.794;17.616;2022-11-24T15:03:14;3.60;99.90
56771;DHT22;42641;59.794;17.616;2022-11-24T15:05:56;3.60;99.90
56771;DHT22;42641;59.794;17.616;2022-11-24T15:08:25;3.60;99.90
56771;DHT22;42641;59.794;17.616;2022-11-24T15:11:00;3.50;99.90
56771;DHT22;42641;59.794;17.616;2022-11-24T15:13:30;3.60;99.90
56771;DHT22;42641;59.794;17.616;2022-11-24T15:16:01;3.50;99.90
56771;DHT22;42641;59.794;17.616;2022-11-24T15:21:01;3.50;99.90
56771;DHT22;42641;59.794;17.616;2022-11-24T15:23:32;3.50;99.90
56771;DHT22;42641;59.794;17.616;2022-11-24T15:28:29;3.50;99.90
56771;DHT22;42641;59.794;17.616;2022-11-24T15:31:01;3.50;99.90
56771;DHT22;42641;59.794;17.616;2022-11-24T15:33:29;3.50;99.90
56771;DHT22;42641;59.794;17.616;2022-11-24T15:35:56;3.50;99.90
56771;DHT22;42641;59.794;17.616;2022-11-24T15:38:22;3.40;99.90
56771;DHT22;42641;59.794;17.616;2022-11-24T15:40:51;3.40;99.90
56771;DHT22;42641;59.794;17.616;2022-11-24T15:43:35;3.40;99.90
56771;DHT22;42641;59.794;17.616;2022-11-24T15:46:02;3.50;99.90
56771;DHT22;42641;59.794;17.616;2022-11-24T15:48:29;3.40;99.90
56771;DHT22;42641;59.794;17.616;2022-11-24T15:50:57;3.40;99.90
56771;DHT22;42641;59.794;17.616;2022-11-24T15:53:38;3.50;99.90
56771;DHT22;42641;59.794;17.616;2022-11-24T15:56:13;3.60;99.90
56771;DHT22;42641;59.794;17.616;2022-11-24T15:58:41;3.50;99.90
56771;DHT22;42641;59.794;17.616;2022-11-24T16:01:07;3.50;99.90
56771;DHT22;42641;59.794;17.616;2022-11-24T16:03:33;3.60;99.90
56771;DHT22;42641;59.794;17.616;2022-11-24T16:06:00;3.60;99.90
56771;DHT22;42641;59.794;17.616;2022-11-24T16:08:26;3.60;99.90
56771;DHT22;42641;59.794;17.616;2022-11-24T16:10:52;3.50;99.90
56771;DHT22;42641;59.794;17.616;2022-11-24T16:13:19;3.50;99.90
56771;DHT22;42641;59.794;17.616;2022-11-24T16:15:45;3.50;99.90
56771;DHT22;42641;59.794;17.616;2022-11-24T16:18:16;3.50;99.90
56771;DHT22;42641;59.794;17.616;2022-11-24T16:20:43;3.50;99.90
56771;DHT22;42641;59.794;17.616;2022-11-24T16:23:09;3.50;99.90
56771;DHT22;42641;59.794;17.616;2022-11-24T16:25:36;3.50;99.90
56771;DHT22;42641;59.794;17.616;2022-11-24T16:28:02;3.50;99.90
56771;DHT22;42641;59.794;17.616;2022-11-24T16:30:29;3.50;99.90
56771;DHT22;42641;59.794;17.616;2022-11-24T16:32:55;3.50;99.90
56771;DHT22;42641;59.794;17.616;2022-11-24T16:35:21;3.40;99.90
56771;DHT22;42641;59.794;17.616;2022-11-24T16:37:48;3.40;99.90
56771;DHT22;42641;59.794;17.616;2022-11-24T16:40:14;3.40;99.90
56771;DHT22;42641;59.794;17.616;2022-11-24T16:42:40;3.40;99.90
56771;DHT22;42641;59.794;17.616;2022-11-24T16:45:10;3.40;99.90
56771;DHT22;42641;59.794;17.616;2022-11-24T16:47:39;3.40;99.90
56771;DHT22;42641;59.794;17.616;2022-11-24T16:50:08;3.40;99.90
56771;DHT22;42641;59.794;17.616;2022-11-24T16:52:35;3.40;99.90
56771;DHT22;42641;59.794;17.616;2022-11-24T16:55:02;3.40;99.90
56771;DHT22;42641;59.794;17.616;2022-11-24T16:57:29;3.40;99.90
56771;DHT22;42641;59.794;17.616;2022-11-24T16:59:55;3.40;99.90
56771;DHT22;42641;59.794;17.616;2022-11-24T17:02:21;3.30;99.90
56771;DHT22;42641;59.794;17.616;2022-11-24T17:04:48;3.30;99.90
56771;DHT22;42641;59.794;17.616;2022-11-24T17:07:18;3.30;99.90
56771;DHT22;42641;59.794;17.616;2022-11-24T17:09:45;3.40;99.90
56771;DHT22;42641;59.794;17.616;2022-11-24T17:12:12;3.30;99.90
56771;DHT22;42641;59.794;17.616;2022-11-24T17:14:38;3.30;99.90
56771;DHT22;42641;59.794;17.616;2022-11-24T17:17:04;3.30;99.90
56771;DHT22;42641;59.794;17.616;2022-11-24T17:19:31;3.30;99.90
56771;DHT22;42641;59.794;17.616;2022-11-24T17:21:57;3.30;99.90
56771;DHT22;42641;59.794;17.616;2022-11-24T17:24:24;3.30;99.90
56771;DHT22;42641;59.794;17.616;2022-11-24T17:26:50;3.30;99.90